Weather at North Bass Island Airport

Public forecast

Using degrees Fahrenheit for public forecast. Weather courtesy of forecast.io.

Closest aviation weather report (METAR) to North Bass Island Airport

Closest report is Carl R Keller Field, 12.3 nm (22.8 km) S. Retrieved 2020/10/21 12:35 UTC (6 minutes ago):

KPCW 211235Z AUTO 28011KT 5SM BR FEW008 BKN016 OVC020 17/16 A3004 RMK AO2

Closest aviation forecast (TAF) to North Bass Island Airport

Closest forecast is Windsor Airport, 34.0 nm (63.0 km) N. Retrieved 2020/10/21 12:42 UTC (0 seconds ago):

TAF CYQG 211138Z 2112/2212 27015G25KT 6SM BR SCT004 OVC010 TEMPO 2112/2114 3SM -RA -DZ BR BKN004 OVC010 FM211400 26012G22KT P6SM BKN020 TEMPO 2114/2117 SCT020 FM211700 28012G22KT P6SM SCT025 FM212300 35005KT P6SM SCT220 FM220300 01005KT P6SM BKN080 FM220800 04006KT P6SM -RA OVC020 FM221100 06010KT 2SM -RA -DZ BR OVC006 RMK FCST BASED ON AUTO OBS NXT FCST BY 211800Z